Time;durP1;ratioP1;P1;durP2;ratioP2;P2;SDS_P1;SDS_P2;PMS_P1;PMS_P2;Temp;Humidity;BMP_temperature;BMP_pressure;BME280_temperature;BME280_humidity;BME280_pressure;Samples;Min_cycle;Max_cycle;Signal;HPM_P1;HPM_P2
2022/01/08 00:00:15;;;;;;;15.80;9.83;;;1.40;99.90;;;;;;5092430;28;20106;-83
2022/01/08 00:02:42;;;;;;;16.60;9.43;;;1.40;99.90;;;;;;5094024;28;20040;-82
2022/01/08 00:05:10;;;;;;;13.50;7.83;;;1.40;99.90;;;;;;5076969;28;20141;-84
2022/01/08 00:07:36;;;;;;;12.53;7.87;;;1.40;99.90;;;;;;5076714;28;20128;-82
2022/01/08 00:10:03;;;;;;;9.53;6.43;;;1.40;99.90;;;;;;5076784;28;20101;-82
2022/01/08 00:12:28;;;;;;;10.63;6.33;;;1.40;99.90;;;;;;5093648;28;20028;-83
2022/01/08 00:14:54;;;;;;;10.83;6.50;;;1.40;99.90;;;;;;5076500;28;20753;-82
2022/01/08 00:17:22;;;;;;;12.00;7.53;;;1.40;99.90;;;;;;5077168;28;20123;-81
2022/01/08 00:19:49;;;;;;;13.27;5.83;;;1.80;99.90;;;;;;5092032;28;20391;-83
2022/01/08 00:22:14;;;;;;;11.60;6.30;;;1.40;99.90;;;;;;5093420;28;20036;-83
2022/01/08 00:24:40;;;;;;;10.17;5.80;;;1.40;99.90;;;;;;5093742;28;20107;-80
2022/01/08 00:27:06;;;;;;;13.93;6.37;;;1.30;99.90;;;;;;5075951;28;20669;-82
2022/01/08 00:29:31;;;;;;;11.87;6.30;;;1.30;99.90;;;;;;5075536;28;20418;-81
2022/01/08 00:31:57;;;;;;;12.10;6.07;;;1.30;99.90;;;;;;5075801;28;20039;-82
2022/01/08 00:34:22;;;;;;;9.13;6.10;;;1.20;99.90;;;;;;5093313;28;20126;-83
2022/01/08 00:36:48;;;;;;;13.83;7.03;;;1.20;99.90;;;;;;5075310;28;20043;-81
2022/01/08 00:39:13;;;;;;;11.03;7.03;;;1.20;99.90;;;;;;5092509;28;20040;-83
2022/01/08 00:41:39;;;;;;;12.37;7.70;;;1.20;99.90;;;;;;5091923;28;20035;-83
2022/01/08 00:44:05;;;;;;;17.83;9.13;;;1.10;99.90;;;;;;5091852;28;20414;-82
2022/01/08 00:46:30;;;;;;;13.87;8.23;;;1.10;99.90;;;;;;5075280;28;20103;-83
2022/01/08 00:48:56;;;;;;;16.77;8.93;;;1.10;99.90;;;;;;5092495;28;20105;-81
2022/01/08 00:51:21;;;;;;;16.93;8.33;;;1.30;99.90;;;;;;5089171;28;20039;-83
2022/01/08 00:53:47;;;;;;;19.20;9.30;;;1.10;99.90;;;;;;5092908;28;20434;-81
2022/01/08 00:56:15;;;;;;;11.10;8.27;;;1.10;99.90;;;;;;5075744;28;20502;-83
2022/01/08 00:58:42;;;;;;;16.50;7.43;;;1.10;99.90;;;;;;5093161;28;20035;-83
2022/01/08 01:01:08;;;;;;;13.17;9.30;;;1.20;99.90;;;;;;5074686;28;20089;-82
2022/01/08 01:03:34;;;;;;;13.13;7.87;;;1.10;99.90;;;;;;5092376;28;20402;-82
2022/01/08 01:06:00;;;;;;;11.93;7.47;;;1.20;99.90;;;;;;5091725;28;20040;-82
2022/01/08 01:08:26;;;;;;;12.53;6.97;;;1.20;99.90;;;;;;5091421;28;20055;-83
2022/01/08 01:10:51;;;;;;;10.00;6.40;;;1.20;99.90;;;;;;5075690;28;20046;-83
2022/01/08 01:13:17;;;;;;;12.63;6.77;;;1.10;99.90;;;;;;5092671;28;20482;-83
2022/01/08 01:15:43;;;;;;;10.90;6.47;;;1.20;99.90;;;;;;5073458;28;20032;-82
2022/01/08 01:18:09;;;;;;;10.13;7.13;;;1.20;99.90;;;;;;5092128;28;20035;-82
2022/01/08 01:20:35;;;;;;;12.97;7.03;;;1.20;99.90;;;;;;5092482;28;20040;-82
2022/01/08 01:23:18;;;;;;;13.03;6.07;;;1.10;99.90;;;;;;5092056;28;20372;-83
2022/01/08 01:25:51;;;;;;;13.80;5.90;;;1.10;99.90;;;;;;5092866;28;20040;-82
2022/01/08 01:47:03;;;;;;;11.57;6.20;;;1.30;99.90;;;;;;5091759;28;20380;-82
2022/01/08 01:49:36;;;;;;;11.52;6.80;;;1.40;99.90;;;;;;5090110;28;20142;-83
2022/01/08 01:52:04;;;;;;;14.77;5.83;;;1.60;99.90;;;;;;5075841;28;20043;-81
2022/01/08 01:54:31;;;;;;;22.77;7.73;;;1.40;99.90;;;;;;5072977;28;20032;-82
2022/01/08 01:56:58;;;;;;;13.63;7.13;;;1.20;99.90;;;;;;5075596;28;20494;-83
2022/01/08 01:59:25;;;;;;;12.87;6.47;;;1.30;99.90;;;;;;5091979;28;20040;-83
2022/01/08 02:01:51;;;;;;;12.93;7.30;;;1.30;99.90;;;;;;5076844;28;20071;-83
2022/01/08 02:04:17;;;;;;;11.77;7.37;;;1.30;99.90;;;;;;5085233;28;20028;-78
2022/01/08 02:06:42;;;;;;;12.90;8.27;;;1.30;99.90;;;;;;5115312;28;20023;-78
2022/01/08 02:09:08;;;;;;;15.37;9.03;;;1.30;99.90;;;;;;5115436;28;20135;-79
2022/01/08 02:11:34;;;;;;;17.80;8.60;;;1.40;99.90;;;;;;5098412;28;20034;-79
2022/01/08 02:14:04;;;;;;;16.30;10.17;;;1.40;99.90;;;;;;5114865;28;20028;-78
2022/01/08 02:16:30;;;;;;;14.70;9.07;;;1.50;99.90;;;;;;5097745;28;20036;-78
2022/01/08 02:18:56;;;;;;;16.20;10.93;;;1.50;99.90;;;;;;5117153;28;20032;-78
2022/01/08 02:21:21;;;;;;;22.43;13.80;;;1.50;99.90;;;;;;5104705;28;20048;-79
2022/01/08 02:23:48;;;;;;;24.10;12.87;;;1.60;99.90;;;;;;5087199;28;20079;-82
2022/01/08 02:26:14;;;;;;;25.27;14.30;;;1.70;99.90;;;;;;5098482;28;20036;-83
2022/01/08 02:28:41;;;;;;;21.63;12.33;;;1.70;99.90;;;;;;5081779;28;20077;-83
2022/01/08 02:31:07;;;;;;;22.83;12.30;;;1.80;99.90;;;;;;5098373;28;20028;-84
2022/01/08 02:33:34;;;;;;;22.33;13.63;;;1.80;99.90;;;;;;5081110;28;20424;-84
2022/01/08 02:36:05;;;;;;;21.80;12.93;;;1.80;99.90;;;;;;5080009;28;20040;-82
2022/01/08 02:38:31;;;;;;;19.43;11.87;;;1.80;99.90;;;;;;5081101;28;20032;-83
2022/01/08 02:41:01;;;;;;;22.17;13.63;;;1.90;99.90;;;;;;5097957;28;20122;-84
2022/01/08 02:43:28;;;;;;;22.80;13.53;;;1.80;99.90;;;;;;5080747;28;20059;-84
2022/01/08 02:45:54;;;;;;;21.33;10.87;;;1.70;99.90;;;;;;5097506;28;20051;-82
2022/01/08 02:48:20;;;;;;;20.80;11.63;;;1.70;99.90;;;;;;5080963;28;20036;-82
2022/01/08 02:50:46;;;;;;;20.63;12.37;;;1.60;99.90;;;;;;5098206;28;20043;-81
2022/01/08 02:53:12;;;;;;;23.53;15.10;;;1.60;99.90;;;;;;5098266;28;20031;-80
2022/01/08 02:55:38;;;;;;;26.70;13.47;;;1.50;99.90;;;;;;5098357;28;20054;-82
2022/01/08 02:58:05;;;;;;;27.60;15.27;;;1.60;99.90;;;;;;5096948;28;20479;-82
2022/01/08 03:00:30;;;;;;;28.33;16.87;;;1.50;99.90;;;;;;5080936;28;20038;-82
2022/01/08 03:02:57;;;;;;;21.30;12.27;;;1.50;99.90;;;;;;5087551;28;20095;-83
2022/01/08 03:05:22;;;;;;;22.97;12.57;;;1.50;99.90;;;;;;5080591;28;20123;-83
2022/01/08 03:07:49;;;;;;;22.87;13.83;;;1.40;99.90;;;;;;5098406;28;20072;-83
2022/01/08 03:10:16;;;;;;;21.50;12.70;;;1.40;99.90;;;;;;5098484;28;20043;-83
2022/01/08 03:12:42;;;;;;;19.53;12.53;;;1.30;99.90;;;;;;5080997;28;20111;-83
2022/01/08 03:15:14;;;;;;;19.63;13.10;;;1.30;99.90;;;;;;5080414;28;20044;-83
2022/01/08 03:17:41;;;;;;;17.17;11.27;;;1.30;99.90;;;;;;5081017;28;20463;-83
2022/01/08 03:20:11;;;;;;;18.90;12.20;;;1.30;99.90;;;;;;5097666;28;20100;-83
2022/01/08 03:22:38;;;;;;;20.63;13.20;;;1.30;99.90;;;;;;5062896;28;20032;-83
2022/01/08 03:25:05;;;;;;;15.90;11.30;;;1.20;99.90;;;;;;5081747;28;20569;-82
2022/01/08 03:27:31;;;;;;;17.13;10.83;;;1.20;99.90;;;;;;5094956;28;20077;-83
2022/01/08 03:29:57;;;;;;;24.57;12.83;;;1.20;99.90;;;;;;5098382;28;20039;-83
2022/01/08 03:32:23;;;;;;;21.43;11.63;;;1.10;99.90;;;;;;5076503;28;20035;-82
2022/01/08 03:34:49;;;;;;;17.97;11.37;;;1.10;99.90;;;;;;5094724;28;20437;-83
2022/01/08 03:37:14;;;;;;;17.07;11.87;;;1.10;99.90;;;;;;5093696;28;20032;-83
2022/01/08 03:39:41;;;;;;;20.97;12.07;;;1.10;99.90;;;;;;5077675;28;20082;-81
2022/01/08 03:42:06;;;;;;;22.13;12.23;;;1.10;99.90;;;;;;5076617;28;20032;-83
2022/01/08 03:44:33;;;;;;;20.30;12.13;;;1.10;99.90;;;;;;5077538;28;20494;-83
2022/01/08 03:47:21;;;;;;;22.23;13.00;;;1.10;99.90;;;;;;5076858;28;20044;-83
2022/01/08 03:49:44;;;;;;;20.30;12.82;;;1.00;99.90;;;;;;5094368;28;20464;-84
2022/01/08 03:52:11;;;;;;;21.73;13.23;;;1.00;99.90;;;;;;5077786;28;20073;-82
2022/01/08 03:54:37;;;;;;;19.93;13.27;;;1.00;99.90;;;;;;5091349;28;20044;-83
2022/01/08 03:57:03;;;;;;;26.30;15.47;;;1.00;99.90;;;;;;5094095;28;20035;-82
2022/01/08 03:59:29;;;;;;;19.00;13.87;;;1.00;99.90;;;;;;5094180;28;20530;-81
2022/01/08 04:01:55;;;;;;;23.47;13.50;;;1.00;99.90;;;;;;5094295;28;20051;-83
2022/01/08 04:04:20;;;;;;;22.60;14.00;;;1.00;99.90;;;;;;5093188;28;20036;-83
2022/01/08 04:06:46;;;;;;;19.30;11.27;;;1.00;99.90;;;;;;5077695;28;20043;-83
2022/01/08 04:09:12;;;;;;;19.63;11.90;;;1.00;99.90;;;;;;5093887;28;20119;-81
2022/01/08 04:11:37;;;;;;;19.43;11.70;;;0.90;99.90;;;;;;5077613;28;20119;-83
2022/01/08 04:14:03;;;;;;;19.50;12.03;;;0.90;99.90;;;;;;5093775;28;20039;-83
2022/01/08 04:16:32;;;;;;;23.03;10.40;;;0.90;99.90;;;;;;5094323;28;20032;-83
2022/01/08 04:18:58;;;;;;;20.93;9.87;;;0.90;99.90;;;;;;5078963;28;20048;-78
2022/01/08 04:24:02;;;;;;;18.27;12.00;;;0.90;99.90;;;;;;5094711;28;20380;-82
2022/01/08 04:26:28;;;;;;;17.30;9.70;;;0.90;99.90;;;;;;5080086;28;20131;-80
2022/01/08 04:28:54;;;;;;;17.20;8.77;;;0.90;99.90;;;;;;5089400;28;20047;-83
2022/01/08 04:31:21;;;;;;;23.57;10.10;;;0.90;99.90;;;;;;5105685;28;20087;-78
2022/01/08 04:33:47;;;;;;;17.80;10.40;;;0.90;99.90;;;;;;5089487;28;20028;-82
2022/01/08 04:36:13;;;;;;;24.07;11.63;;;0.90;99.90;;;;;;5106824;28;20065;-81
2022/01/08 04:38:39;;;;;;;19.20;10.60;;;1.00;99.90;;;;;;5106866;28;20036;-81
2022/01/08 04:41:04;;;;;;;16.67;8.97;;;1.00;99.90;;;;;;5106034;28;20023;-82
2022/01/08 04:43:30;;;;;;;17.50;8.77;;;1.00;99.90;;;;;;5089710;28;20087;-82
2022/01/08 04:45:56;;;;;;;17.03;8.53;;;1.10;99.90;;;;;;5107132;28;20040;-82
2022/01/08 04:48:22;;;;;;;17.53;9.00;;;1.10;99.90;;;;;;5104818;28;20036;-82
2022/01/08 04:50:48;;;;;;;16.93;8.07;;;1.10;99.90;;;;;;5089741;28;20079;-80
2022/01/08 04:53:13;;;;;;;14.67;6.80;;;1.20;99.90;;;;;;5105229;28;20119;-81
2022/01/08 04:55:39;;;;;;;16.57;8.47;;;1.20;99.90;;;;;;5106917;28;20079;-80
2022/01/08 04:58:05;;;;;;;12.30;7.47;;;1.20;99.90;;;;;;5104298;28;20082;-83
2022/01/08 05:00:31;;;;;;;19.93;7.87;;;1.30;99.90;;;;;;5106606;28;20080;-82
2022/01/08 05:02:58;;;;;;;14.07;4.87;;;1.60;99.90;;;;;;5087298;28;20095;-83
2022/01/08 05:05:23;;;;;;;11.30;5.93;;;1.20;99.90;;;;;;5099266;28;20036;-82
2022/01/08 05:07:49;;;;;;;11.03;5.07;;;1.20;99.90;;;;;;5100231;28;20186;-82
2022/01/08 05:10:15;;;;;;;11.73;5.67;;;1.20;99.90;;;;;;5094352;28;20046;-83
2022/01/08 05:12:40;;;;;;;9.80;5.10;;;1.30;99.90;;;;;;5094709;28;20032;-81
2022/01/08 05:15:07;;;;;;;8.57;4.07;;;1.20;99.90;;;;;;5078256;28;20043;-80
2022/01/08 05:17:35;;;;;;;12.87;6.43;;;1.20;99.90;;;;;;5077728;28;20032;-83
2022/01/08 05:20:07;;;;;;;10.90;5.33;;;1.20;99.90;;;;;;5077870;28;20056;-81
2022/01/08 05:22:59;;;;;;;10.90;5.97;;;1.20;99.90;;;;;;5077895;28;20043;-83
2022/01/08 05:25:25;;;;;;;9.67;5.10;;;1.20;99.90;;;;;;5078782;28;20067;-81
2022/01/08 05:27:51;;;;;;;8.87;5.47;;;1.10;99.90;;;;;;5078332;28;20051;-81
2022/01/08 05:30:18;;;;;;;12.53;8.70;;;1.10;99.90;;;;;;5077552;28;20039;-83
2022/01/08 05:32:44;;;;;;;16.47;8.70;;;1.10;99.90;;;;;;5094870;28;20047;-82
2022/01/08 05:35:10;;;;;;;20.33;8.00;;;1.00;99.90;;;;;;5093942;28;20036;-82
2022/01/08 05:37:35;;;;;;;15.00;8.50;;;1.00;99.90;;;;;;5093931;28;20062;-81
2022/01/08 05:40:01;;;;;;;15.93;9.73;;;1.00;99.90;;;;;;5094471;28;20036;-83
2022/01/08 05:42:27;;;;;;;20.70;10.73;;;0.90;99.90;;;;;;5076744;28;20032;-82
2022/01/08 05:44:52;;;;;;;16.40;9.33;;;0.90;99.90;;;;;;5094096;28;20032;-83
2022/01/08 05:47:21;;;;;;;19.10;9.13;;;0.90;99.90;;;;;;5077600;28;20044;-81
2022/01/08 05:49:46;;;;;;;21.00;9.47;;;0.90;99.90;;;;;;5093859;28;20506;-82
2022/01/08 05:52:12;;;;;;;16.60;9.03;;;0.90;99.90;;;;;;5093809;28;20036;-81
2022/01/08 05:54:38;;;;;;;22.23;11.30;;;0.80;99.90;;;;;;5077149;28;20040;-82
2022/01/08 05:57:04;;;;;;;21.43;11.10;;;0.80;99.90;;;;;;5093962;28;20036;-83
2022/01/08 05:59:30;;;;;;;18.07;11.03;;;0.80;99.90;;;;;;5093646;28;20121;-83
2022/01/08 06:01:56;;;;;;;18.83;10.73;;;0.70;99.90;;;;;;5094088;28;20024;-81
2022/01/08 06:04:23;;;;;;;22.00;10.40;;;0.80;99.90;;;;;;5077466;28;20032;-82
2022/01/08 06:06:49;;;;;;;20.43;10.97;;;0.70;99.90;;;;;;5077203;28;20099;-82
2022/01/08 06:09:15;;;;;;;20.67;10.27;;;0.70;99.90;;;;;;5093263;28;20036;-82
2022/01/08 06:11:41;;;;;;;18.17;11.47;;;0.60;99.90;;;;;;5094104;28;20036;-81
2022/01/08 06:14:07;;;;;;;23.93;13.07;;;0.60;99.90;;;;;;5093515;28;20640;-82
2022/01/08 06:16:35;;;;;;;18.67;11.27;;;0.70;99.90;;;;;;5092537;28;20392;-82
2022/01/08 06:19:06;;;;;;;20.67;11.03;;;0.70;99.90;;;;;;5092683;28;20043;-83
2022/01/08 06:21:32;;;;;;;21.67;11.43;;;0.70;99.90;;;;;;5076140;28;20092;-83
2022/01/08 06:23:58;;;;;;;22.10;11.50;;;0.70;99.90;;;;;;5093108;28;20032;-83
2022/01/08 06:26:24;;;;;;;20.47;12.40;;;0.80;99.90;;;;;;5092132;28;20032;-82
2022/01/08 06:28:51;;;;;;;24.60;12.53;;;0.60;99.90;;;;;;5093100;28;20115;-81
2022/01/08 06:31:19;;;;;;;26.00;11.93;;;0.70;99.90;;;;;;5092570;28;20102;-83
2022/01/08 06:33:44;;;;;;;19.50;11.90;;;0.70;99.90;;;;;;5075200;28;20036;-83
2022/01/08 06:36:10;;;;;;;14.87;9.70;;;0.70;99.90;;;;;;5091663;28;20066;-80
2022/01/08 06:38:36;;;;;;;18.17;9.33;;;0.70;99.90;;;;;;5092723;28;20029;-83
2022/01/08 06:41:01;;;;;;;23.00;11.10;;;0.70;99.90;;;;;;5075246;28;20035;-83
2022/01/08 06:43:27;;;;;;;15.90;10.07;;;0.60;99.90;;;;;;5092760;28;20117;-82
2022/01/08 06:45:52;;;;;;;20.47;10.13;;;0.70;99.90;;;;;;5091525;28;20123;-81
2022/01/08 06:48:18;;;;;;;16.43;9.60;;;0.70;99.90;;;;;;5091238;28;20083;-82
2022/01/08 06:50:44;;;;;;;23.70;10.60;;;0.60;99.90;;;;;;5092979;28;20040;-82
2022/01/08 06:53:10;;;;;;;25.17;11.97;;;0.60;99.90;;;;;;5093275;28;20074;-83
2022/01/08 06:55:36;;;;;;;22.40;10.40;;;0.60;99.90;;;;;;5091772;28;20032;-83
2022/01/08 06:58:02;;;;;;;20.87;11.27;;;0.60;99.90;;;;;;5075856;28;20036;-83
2022/01/08 07:00:27;;;;;;;16.87;10.50;;;0.70;99.90;;;;;;5091909;28;20052;-82
2022/01/08 07:02:53;;;;;;;19.00;10.10;;;0.70;99.90;;;;;;5091358;28;20463;-82
2022/01/08 07:05:18;;;;;;;19.13;9.13;;;0.70;99.90;;;;;;5074906;28;20450;-83
2022/01/08 07:07:44;;;;;;;15.10;8.03;;;0.60;99.90;;;;;;5078705;28;20058;-83
2022/01/08 07:10:09;;;;;;;18.07;8.23;;;0.60;99.90;;;;;;5079486;28;20450;-82
2022/01/08 07:12:35;;;;;;;17.90;9.17;;;0.50;99.90;;;;;;5077944;28;20035;-83
2022/01/08 07:15:01;;;;;;;23.70;10.30;;;0.60;99.90;;;;;;5078209;28;20040;-83
2022/01/08 07:17:27;;;;;;;18.83;9.20;;;0.60;99.90;;;;;;5095446;28;20062;-83
2022/01/08 07:19:52;;;;;;;21.37;9.43;;;0.70;99.90;;;;;;5096058;28;20483;-83
2022/01/08 07:22:18;;;;;;;18.23;10.00;;;0.50;99.90;;;;;;5078369;28;20032;-82
2022/01/08 07:24:44;;;;;;;21.80;9.67;;;0.50;99.90;;;;;;5096192;28;20032;-83
2022/01/08 07:27:09;;;;;;;23.27;9.83;;;0.50;99.90;;;;;;5078041;28;20125;-83
2022/01/08 07:29:35;;;;;;;11.73;7.90;;;0.70;99.90;;;;;;5095266;28;20497;-83
2022/01/08 07:32:01;;;;;;;21.13;9.20;;;0.60;99.90;;;;;;5076565;28;20043;-82
2022/01/08 07:34:26;;;;;;;14.90;8.57;;;0.50;99.90;;;;;;5077888;28;20036;-83
2022/01/08 07:36:52;;;;;;;22.80;9.40;;;0.50;99.90;;;;;;5093850;28;20032;-83
2022/01/08 07:39:17;;;;;;;18.07;9.40;;;0.50;99.90;;;;;;5094586;28;20036;-83
2022/01/08 07:41:43;;;;;;;16.20;8.87;;;0.50;99.90;;;;;;5094615;28;20032;-83
2022/01/08 07:44:10;;;;;;;13.80;8.77;;;0.50;99.90;;;;;;5095207;28;20418;-83
2022/01/08 07:46:35;;;;;;;19.53;9.97;;;0.80;99.90;;;;;;5094048;28;20032;-83
2022/01/08 07:49:01;;;;;;;21.50;10.53;;;0.70;99.90;;;;;;5094969;28;20043;-82
2022/01/08 07:51:26;;;;;;;19.03;10.00;;;0.60;99.90;;;;;;5077691;28;20119;-83
2022/01/08 07:53:52;;;;;;;16.60;9.80;;;0.60;99.90;;;;;;5077089;28;20478;-83
2022/01/08 07:56:18;;;;;;;17.43;10.30;;;0.60;99.90;;;;;;5093694;28;20051;-83
2022/01/08 07:58:43;;;;;;;21.97;9.17;;;0.50;99.90;;;;;;5094143;28;20032;-83
2022/01/08 08:01:09;;;;;;;16.70;9.27;;;0.50;99.90;;;;;;5077353;28;20097;-81
2022/01/08 08:03:34;;;;;;;16.47;9.83;;;0.50;99.90;;;;;;5096911;28;20437;-83
2022/01/08 08:06:01;;;;;;;26.57;10.93;;;1.20;99.90;;;;;;5099243;28;20043;-78
2022/01/08 08:08:26;;;;;;;18.93;10.00;;;0.60;99.90;;;;;;5117631;28;20035;-77
2022/01/08 08:10:52;;;;;;;18.80;10.20;;;0.60;99.90;;;;;;5117636;28;20036;-79
2022/01/08 08:13:19;;;;;;;17.07;9.07;;;0.80;99.90;;;;;;5116856;28;20040;-78
2022/01/08 08:15:45;;;;;;;14.17;8.60;;;0.60;99.90;;;;;;5117113;28;20032;-79
2022/01/08 08:18:11;;;;;;;20.40;10.00;;;0.70;99.90;;;;;;5116537;28;20027;-78
2022/01/08 08:20:37;;;;;;;14.13;8.47;;;0.70;99.90;;;;;;5116940;28;20058;-80
2022/01/08 08:23:03;;;;;;;18.30;8.50;;;0.80;99.90;;;;;;5107353;28;20040;-83
2022/01/08 08:25:29;;;;;;;17.27;8.43;;;0.60;99.90;;;;;;5081230;28;20100;-82
2022/01/08 08:27:55;;;;;;;17.00;8.47;;;0.70;99.90;;;;;;5091825;28;20043;-83
2022/01/08 08:30:21;;;;;;;18.40;8.63;;;0.90;99.90;;;;;;5076963;28;20410;-82
2022/01/08 08:32:48;;;;;;;15.37;7.83;;;0.80;99.90;;;;;;5093104;28;20044;-81
2022/01/08 08:35:14;;;;;;;17.97;7.80;;;0.70;99.90;;;;;;5076198;28;20036;-83
2022/01/08 08:37:40;;;;;;;15.43;7.27;;;0.70;99.90;;;;;;5092468;28;20424;-81
2022/01/08 08:40:08;;;;;;;16.13;8.23;;;0.80;99.90;;;;;;5092507;28;20092;-83
2022/01/08 08:42:34;;;;;;;12.40;7.77;;;0.90;99.90;;;;;;5092267;28;20042;-83
2022/01/08 08:45:01;;;;;;;19.50;9.20;;;1.00;99.90;;;;;;5093275;28;20170;-82
2022/01/08 08:47:26;;;;;;;17.03;8.47;;;1.00;99.90;;;;;;5092777;28;20028;-82
2022/01/08 08:49:52;;;;;;;12.53;6.53;;;1.10;99.90;;;;;;5092702;28;20559;-83
2022/01/08 08:52:18;;;;;;;11.93;6.90;;;1.20;99.90;;;;;;5075836;28;20036;-81
2022/01/08 08:54:43;;;;;;;14.23;6.23;;;1.20;99.90;;;;;;5075441;28;20087;-84
2022/01/08 08:57:10;;;;;;;14.53;7.03;;;1.30;99.90;;;;;;5092077;28;20032;-83
2022/01/08 08:59:36;;;;;;;10.37;4.70;;;1.30;99.90;;;;;;5075137;28;20028;-83
2022/01/08 09:02:02;;;;;;;12.43;6.50;;;1.40;99.90;;;;;;5091952;28;20418;-82
2022/01/08 09:04:28;;;;;;;10.70;5.10;;;1.90;99.90;;;;;;5074133;28;20126;-83
2022/01/08 09:06:56;;;;;;;8.80;4.63;;;1.40;99.90;;;;;;5074640;28;20051;-83
2022/01/08 09:09:23;;;;;;;10.23;5.53;;;1.50;99.90;;;;;;5074888;28;20558;-83
2022/01/08 09:11:49;;;;;;;9.33;4.77;;;1.60;99.90;;;;;;5089006;28;20066;-81
2022/01/08 09:14:14;;;;;;;12.17;4.97;;;1.50;99.90;;;;;;5074316;28;20459;-83
2022/01/08 09:16:45;;;;;;;8.87;5.07;;;1.50;99.90;;;;;;5091533;28;20028;-83
2022/01/08 09:19:11;;;;;;;11.20;5.33;;;1.50;99.90;;;;;;5084550;28;20039;-83
2022/01/08 09:21:37;;;;;;;12.03;4.03;;;1.60;99.90;;;;;;5091649;28;20036;-84
2022/01/08 09:24:03;;;;;;;13.93;5.27;;;1.80;99.90;;;;;;5074885;28;20032;-84
2022/01/08 09:26:28;;;;;;;8.77;5.73;;;1.60;99.90;;;;;;5074066;28;20058;-84
2022/01/08 09:28:54;;;;;;;14.13;6.70;;;1.70;99.90;;;;;;5090760;28;20483;-85
2022/01/08 09:31:19;;;;;;;34.87;16.47;;;1.90;99.90;;;;;;5091115;28;20085;-84
2022/01/08 09:33:45;;;;;;;13.03;5.47;;;1.70;99.90;;;;;;5073065;28;20407;-85
2022/01/08 09:36:11;;;;;;;10.03;5.20;;;1.80;99.90;;;;;;5090735;28;20096;-84
2022/01/08 09:38:37;;;;;;;27.67;16.73;;;1.90;99.90;;;;;;5074304;28;20031;-84
2022/01/08 09:41:02;;;;;;;12.57;5.23;;;2.00;99.90;;;;;;5078731;28;20039;-85
2022/01/08 09:43:28;;;;;;;12.97;5.40;;;2.10;99.90;;;;;;5074438;28;20031;-85
2022/01/08 09:45:54;;;;;;;13.47;5.90;;;2.00;99.90;;;;;;5090423;28;20040;-84
2022/01/08 09:48:19;;;;;;;16.47;6.67;;;2.10;99.90;;;;;;5073766;28;20036;-85
2022/01/08 09:50:45;;;;;;;9.57;4.97;;;2.10;99.90;;;;;;5090665;28;20482;-85
2022/01/08 09:53:11;;;;;;;8.87;5.00;;;2.40;99.90;;;;;;5073894;28;20099;-84
2022/01/08 09:55:37;;;;;;;14.20;5.50;;;2.20;99.90;;;;;;5073363;28;20043;-84
2022/01/08 09:58:03;;;;;;;10.70;5.63;;;2.20;99.90;;;;;;5090875;28;20028;-84
2022/01/08 10:00:32;;;;;;;12.67;5.83;;;2.10;99.90;;;;;;5090606;28;20058;-85
2022/01/08 10:03:17;;;;;;;12.20;5.07;;;2.00;99.90;;;;;;5073171;28;20039;-85
2022/01/08 10:05:54;;;;;;;269.63;143.07;;;2.10;99.90;;;;;;5089830;28;20040;-85
2022/01/08 10:08:28;;;;;;;15.33;7.03;;;2.20;99.90;;;;;;5090692;28;20043;-85
2022/01/08 10:10:56;;;;;;;18.40;8.77;;;2.10;99.90;;;;;;5073794;28;20036;-85
2022/01/08 10:13:25;;;;;;;20.13;9.60;;;2.10;99.90;;;;;;5073535;28;20044;-85
2022/01/08 10:18:39;;;;;;;12.67;5.77;;;2.40;99.90;;;;;;5086226;28;20041;-83
2022/01/08 10:21:15;;;;;;;12.53;5.80;;;2.40;99.90;;;;;;5091510;28;20134;-83
2022/01/08 10:24:06;;;;;;;9.43;5.80;;;2.70;99.90;;;;;;5088762;28;20383;-82
2022/01/08 10:26:36;;;;;;;12.00;7.00;;;2.40;99.90;;;;;;5084803;28;20043;-83
2022/01/08 10:29:05;;;;;;;15.70;6.20;;;2.50;99.90;;;;;;5083752;28;20044;-83
2022/01/08 10:31:48;;;;;;;16.33;7.50;;;2.60;99.90;;;;;;5096183;28;20028;-83
2022/01/08 10:34:26;;;;;;;14.67;6.93;;;2.40;99.90;;;;;;5087247;28;20102;-83
2022/01/08 10:36:54;;;;;;;10.47;6.97;;;2.40;99.90;;;;;;5083614;28;20123;-82
2022/01/08 10:39:25;;;;;;;11.93;6.60;;;2.40;99.90;;;;;;5099973;28;20062;-82
2022/01/08 10:41:53;;;;;;;14.47;8.83;;;2.30;99.90;;;;;;5087286;28;20511;-83
2022/01/08 10:44:27;;;;;;;13.93;6.83;;;2.60;99.90;;;;;;5088651;28;20036;-83
2022/01/08 10:47:06;;;;;;;13.93;8.17;;;2.70;99.90;;;;;;5103039;28;20452;-83
2022/01/08 10:49:44;;;;;;;10.10;7.13;;;2.50;99.90;;;;;;5103451;28;20040;-81
2022/01/08 10:52:15;;;;;;;13.37;7.60;;;2.50;99.90;;;;;;5083554;28;20036;-83
2022/01/08 10:54:42;;;;;;;12.90;7.13;;;2.50;99.90;;;;;;5096313;28;20039;-80
2022/01/08 10:57:12;;;;;;;12.87;7.80;;;2.80;99.90;;;;;;5095415;28;20032;-81
2022/01/08 10:59:38;;;;;;;10.77;7.17;;;2.70;99.90;;;;;;5079982;28;20125;-80
2022/01/08 11:02:11;;;;;;;12.03;6.27;;;2.80;99.90;;;;;;5079437;28;20036;-80
2022/01/08 11:04:36;;;;;;;11.17;7.47;;;2.70;99.90;;;;;;5078452;28;20032;-79
2022/01/08 11:07:06;;;;;;;11.33;6.30;;;2.80;99.90;;;;;;5095752;28;20044;-80
2022/01/08 11:09:33;;;;;;;10.77;7.37;;;2.90;99.90;;;;;;5095440;28;20089;-80
2022/01/08 11:12:00;;;;;;;12.87;6.00;;;2.80;99.90;;;;;;5095676;28;20089;-80
2022/01/08 11:15:01;;;;;;;15.33;7.93;;;3.00;99.90;;;;;;5095857;28;20040;-80
2022/01/08 11:17:38;;;;;;;11.90;7.33;;;3.00;99.90;;;;;;5100698;28;20123;-82
2022/01/08 11:20:09;;;;;;;14.73;8.20;;;3.10;99.90;;;;;;5099488;28;20050;-81
2022/01/08 11:22:41;;;;;;;11.63;7.83;;;3.00;99.90;;;;;;5099555;28;20143;-81
2022/01/08 11:25:14;;;;;;;11.93;7.47;;;2.80;99.90;;;;;;5101662;28;20048;-83
2022/01/08 11:28:11;;;;;;;12.27;7.17;;;2.90;99.90;;;;;;5083180;28;20067;-81
2022/01/08 11:30:38;;;;;;;17.90;9.33;;;2.90;99.90;;;;;;5067424;28;20040;-82
2022/01/08 11:33:14;;;;;;;13.97;6.87;;;2.80;99.90;;;;;;5099784;28;20169;-82
2022/01/08 11:35:42;;;;;;;14.53;7.77;;;2.90;99.90;;;;;;5091389;28;20044;-81
2022/01/08 11:38:10;;;;;;;17.27;8.37;;;3.00;99.90;;;;;;5099405;28;20032;-82
2022/01/08 11:40:39;;;;;;;13.75;8.43;;;3.00;99.90;;;;;;5097807;28;20119;-82
2022/01/08 11:43:08;;;;;;;12.83;8.37;;;3.20;99.90;;;;;;5097603;28;20475;-82
2022/01/08 11:45:52;;;;;;;16.57;8.47;;;3.10;99.90;;;;;;5080272;28;20035;-82
2022/01/08 11:48:21;;;;;;;15.20;7.43;;;3.10;99.90;;;;;;5098033;28;20074;-84
2022/01/08 11:50:51;;;;;;;12.67;8.83;;;3.30;99.90;;;;;;5081491;28;20044;-82
2022/01/08 11:53:24;;;;;;;12.60;7.47;;;3.20;99.90;;;;;;5097142;28;20436;-82
2022/01/08 11:55:52;;;;;;;13.18;8.35;;;3.30;99.90;;;;;;5095546;28;20044;-82
2022/01/08 11:58:23;;;;;;;12.48;6.63;;;3.60;99.90;;;;;;5079965;28;20491;-82
2022/01/08 12:00:52;;;;;;;13.75;8.80;;;3.50;99.90;;;;;;5079412;28;20051;-81
2022/01/08 12:03:40;;;;;;;13.40;7.77;;;3.60;99.90;;;;;;5079142;28;20547;-81
2022/01/08 12:06:32;;;;;;;18.83;9.07;;;3.50;99.90;;;;;;5094915;28;20048;-81
2022/01/08 12:09:08;;;;;;;14.48;8.77;;;3.30;99.90;;;;;;5094617;28;20517;-82
2022/01/08 12:11:54;;;;;;;10.70;8.07;;;3.40;99.90;;;;;;5063599;28;20094;-82
2022/01/08 12:14:24;;;;;;;15.52;7.78;;;3.60;99.90;;;;;;5077779;28;20370;-81
2022/01/08 12:16:52;;;;;;;11.45;8.57;;;3.60;99.90;;;;;;5093810;28;20106;-81
2022/01/08 12:19:27;;;;;;;13.37;10.20;;;3.70;99.90;;;;;;5093637;28;20048;-80
2022/01/08 12:21:52;;;;;;;14.88;9.60;;;3.60;99.90;;;;;;5094933;28;20044;-81
2022/01/08 12:24:27;;;;;;;14.50;9.55;;;3.80;99.90;;;;;;5076998;28;20036;-81
2022/01/08 12:26:57;;;;;;;16.47;10.83;;;3.60;99.90;;;;;;5077031;28;20459;-80
2022/01/08 12:29:36;;;;;;;17.38;11.85;;;3.60;99.90;;;;;;5076523;28;20123;-80
2022/01/08 12:32:29;;;;;;;17.15;12.90;;;3.70;99.90;;;;;;5094290;28;20421;-81
2022/01/08 12:35:20;;;;;;;18.05;13.20;;;3.60;99.90;;;;;;5077402;28;20048;-81
2022/01/08 12:37:54;;;;;;;19.35;11.80;;;3.70;99.90;;;;;;5077172;28;20032;-82
2022/01/08 12:40:42;;;;;;;18.25;12.05;;;3.70;99.90;;;;;;5093994;28;20039;-82
2022/01/08 12:43:23;;;;;;;17.88;12.15;;;3.60;99.90;;;;;;5077551;28;20040;-80
2022/01/08 12:45:50;;;;;;;19.98;11.02;;;3.60;99.90;;;;;;5094025;28;20040;-81
2022/01/08 12:48:20;;;;;;;23.90;16.67;;;3.90;99.90;;;;;;5077157;28;20040;-80
2022/01/08 12:50:45;;;;;;;20.45;11.13;;;3.70;99.90;;;;;;5086332;28;20104;-80
2022/01/08 12:53:27;;;;;;;14.95;12.18;;;3.70;99.90;;;;;;5094306;28;20047;-80
2022/01/08 12:55:55;;;;;;;14.27;11.15;;;3.60;99.90;;;;;;5094526;28;20040;-81
2022/01/08 12:58:36;;;;;;;18.45;12.60;;;3.80;99.90;;;;;;5095607;28;20042;-80
2022/01/08 13:01:05;;;;;;;20.98;12.48;;;3.70;99.90;;;;;;5076242;28;20548;-81
2022/01/08 13:03:39;;;;;;;17.65;12.82;;;3.50;99.90;;;;;;5077355;28;20090;-81
2022/01/08 13:06:11;;;;;;;25.80;14.93;;;3.60;99.90;;;;;;5075467;28;20059;-79
2022/01/08 13:08:38;;;;;;;20.30;15.07;;;3.60;99.90;;;;;;5106635;28;20081;-82
2022/01/08 13:11:09;;;;;;;24.30;13.45;;;3.70;99.90;;;;;;5106297;28;20046;-83